sensor_id;sensor_type;location;lat;lon;timestamp;P1;durP1;ratioP1;P2;durP2;ratioP2
8232;SDS011;4157;48.074;9.952;2023-04-03T00:01:20;7.15;;;6.45;;
8232;SDS011;4157;48.074;9.952;2023-04-03T00:03:48;7.28;;;5.80;;
8232;SDS011;4157;48.074;9.952;2023-04-03T00:06:17;7.40;;;6.60;;
8232;SDS011;4157;48.074;9.952;2023-04-03T00:08:45;6.65;;;5.90;;
8232;SDS011;4157;48.074;9.952;2023-04-03T00:11:12;7.18;;;5.97;;
8232;SDS011;4157;48.074;9.952;2023-04-03T00:13:40;8.45;;;6.65;;
8232;SDS011;4157;48.074;9.952;2023-04-03T00:16:08;7.63;;;5.93;;
8232;SDS011;4157;48.074;9.952;2023-04-03T00:18:38;10.85;;;6.50;;
8232;SDS011;4157;48.074;9.952;2023-04-03T00:21:07;8.25;;;6.90;;
8232;SDS011;4157;48.074;9.952;2023-04-03T00:23:35;9.07;;;6.68;;
8232;SDS011;4157;48.074;9.952;2023-04-03T00:26:02;7.28;;;6.32;;
8232;SDS011;4157;48.074;9.952;2023-04-03T00:28:30;7.55;;;6.40;;
8232;SDS011;4157;48.074;9.952;2023-04-03T00:30:58;7.85;;;7.05;;
8232;SDS011;4157;48.074;9.952;2023-04-03T00:33:25;7.25;;;6.47;;
8232;SDS011;4157;48.074;9.952;2023-04-03T00:35:54;7.97;;;6.72;;
8232;SDS011;4157;48.074;9.952;2023-04-03T00:38:22;7.65;;;6.85;;
8232;SDS011;4157;48.074;9.952;2023-04-03T00:40:50;9.45;;;6.88;;
8232;SDS011;4157;48.074;9.952;2023-04-03T00:43:19;8.95;;;7.00;;
8232;SDS011;4157;48.074;9.952;2023-04-03T00:45:47;7.70;;;6.50;;
8232;SDS011;4157;48.074;9.952;2023-04-03T00:48:17;8.68;;;6.70;;
8232;SDS011;4157;48.074;9.952;2023-04-03T00:50:45;7.75;;;6.70;;
8232;SDS011;4157;48.074;9.952;2023-04-03T00:53:16;9.13;;;7.20;;
8232;SDS011;4157;48.074;9.952;2023-04-03T00:55:45;7.05;;;6.25;;
8232;SDS011;4157;48.074;9.952;2023-04-03T00:58:14;7.93;;;6.80;;
8232;SDS011;4157;48.074;9.952;2023-04-03T01:00:43;7.90;;;6.68;;
8232;SDS011;4157;48.074;9.952;2023-04-03T01:03:14;7.75;;;6.35;;
8232;SDS011;4157;48.074;9.952;2023-04-03T01:05:41;8.18;;;6.95;;
8232;SDS011;4157;48.074;9.952;2023-04-03T01:08:09;7.38;;;6.45;;
8232;SDS011;4157;48.074;9.952;2023-04-03T01:10:38;7.93;;;7.13;;
8232;SDS011;4157;48.074;9.952;2023-04-03T01:13:18;8.82;;;6.93;;
8232;SDS011;4157;48.074;9.952;2023-04-03T01:15:46;7.30;;;6.60;;
8232;SDS011;4157;48.074;9.952;2023-04-03T01:18:14;8.85;;;6.32;;
8232;SDS011;4157;48.074;9.952;2023-04-03T01:23:52;9.10;;;6.15;;
8232;SDS011;4157;48.074;9.952;2023-04-03T01:26:23;8.02;;;6.10;;
8232;SDS011;4157;48.074;9.952;2023-04-03T01:28:53;7.20;;;6.18;;
8232;SDS011;4157;48.074;9.952;2023-04-03T01:31:22;9.73;;;6.88;;
8232;SDS011;4157;48.074;9.952;2023-04-03T01:33:54;7.05;;;5.97;;
8232;SDS011;4157;48.074;9.952;2023-04-03T01:36:23;6.90;;;5.75;;
8232;SDS011;4157;48.074;9.952;2023-04-03T01:38:51;7.18;;;5.68;;
8232;SDS011;4157;48.074;9.952;2023-04-03T01:41:19;7.75;;;6.00;;
8232;SDS011;4157;48.074;9.952;2023-04-03T01:43:47;6.55;;;5.63;;
8232;SDS011;4157;48.074;9.952;2023-04-03T01:46:15;7.60;;;5.90;;
8232;SDS011;4157;48.074;9.952;2023-04-03T01:48:43;8.65;;;6.28;;
8232;SDS011;4157;48.074;9.952;2023-04-03T01:51:12;6.68;;;5.82;;
8232;SDS011;4157;48.074;9.952;2023-04-03T01:53:40;6.72;;;5.70;;
8232;SDS011;4157;48.074;9.952;2023-04-03T01:56:07;7.10;;;5.40;;
8232;SDS011;4157;48.074;9.952;2023-04-03T01:58:35;7.65;;;6.05;;
8232;SDS011;4157;48.074;9.952;2023-04-03T02:01:04;7.80;;;5.88;;
8232;SDS011;4157;48.074;9.952;2023-04-03T02:03:32;6.70;;;5.55;;
8232;SDS011;4157;48.074;9.952;2023-04-03T02:05:59;7.82;;;6.30;;
8232;SDS011;4157;48.074;9.952;2023-04-03T02:08:29;9.52;;;6.90;;
8232;SDS011;4157;48.074;9.952;2023-04-03T02:10:56;6.80;;;5.45;;
8232;SDS011;4157;48.074;9.952;2023-04-03T02:13:24;7.30;;;6.35;;
8232;SDS011;4157;48.074;9.952;2023-04-03T02:15:52;8.50;;;6.07;;
8232;SDS011;4157;48.074;9.952;2023-04-03T02:18:19;8.57;;;6.32;;
8232;SDS011;4157;48.074;9.952;2023-04-03T02:20:47;7.95;;;5.72;;
8232;SDS011;4157;48.074;9.952;2023-04-03T02:23:15;6.88;;;5.82;;
8232;SDS011;4157;48.074;9.952;2023-04-03T02:25:44;7.07;;;5.95;;
8232;SDS011;4157;48.074;9.952;2023-04-03T02:28:14;7.32;;;6.47;;
8232;SDS011;4157;48.074;9.952;2023-04-03T02:30:42;6.80;;;5.75;;
8232;SDS011;4157;48.074;9.952;2023-04-03T02:33:10;7.13;;;5.65;;
8232;SDS011;4157;48.074;9.952;2023-04-03T02:35:38;7.88;;;6.13;;
8232;SDS011;4157;48.074;9.952;2023-04-03T02:38:06;7.93;;;5.97;;
8232;SDS011;4157;48.074;9.952;2023-04-03T02:40:34;7.13;;;5.93;;
8232;SDS011;4157;48.074;9.952;2023-04-03T02:43:03;7.32;;;5.78;;
8232;SDS011;4157;48.074;9.952;2023-04-03T02:45:31;7.88;;;6.05;;
8232;SDS011;4157;48.074;9.952;2023-04-03T02:47:59;7.30;;;6.10;;
8232;SDS011;4157;48.074;9.952;2023-04-03T02:50:26;7.43;;;6.00;;
8232;SDS011;4157;48.074;9.952;2023-04-03T02:52:54;6.57;;;5.50;;
8232;SDS011;4157;48.074;9.952;2023-04-03T02:55:22;8.50;;;5.53;;
8232;SDS011;4157;48.074;9.952;2023-04-03T02:57:52;6.80;;;5.50;;
8232;SDS011;4157;48.074;9.952;2023-04-03T03:00:21;6.97;;;5.45;;
8232;SDS011;4157;48.074;9.952;2023-04-03T03:02:49;5.72;;;4.90;;
8232;SDS011;4157;48.074;9.952;2023-04-03T03:05:17;7.68;;;6.05;;
8232;SDS011;4157;48.074;9.952;2023-04-03T03:07:44;6.88;;;5.65;;
8232;SDS011;4157;48.074;9.952;2023-04-03T03:10:12;6.45;;;5.75;;
8232;SDS011;4157;48.074;9.952;2023-04-03T03:12:40;7.68;;;6.28;;
8232;SDS011;4157;48.074;9.952;2023-04-03T03:15:08;7.40;;;5.75;;
8232;SDS011;4157;48.074;9.952;2023-04-03T03:17:37;7.75;;;5.78;;
8232;SDS011;4157;48.074;9.952;2023-04-03T03:20:05;7.75;;;5.68;;
8232;SDS011;4157;48.074;9.952;2023-04-03T03:22:33;11.48;;;9.82;;
8232;SDS011;4157;48.074;9.952;2023-04-03T03:25:02;6.68;;;5.88;;
8232;SDS011;4157;48.074;9.952;2023-04-03T03:27:30;7.15;;;5.53;;
8232;SDS011;4157;48.074;9.952;2023-04-03T03:29:58;6.93;;;5.70;;
8232;SDS011;4157;48.074;9.952;2023-04-03T03:32:25;7.60;;;6.07;;
8232;SDS011;4157;48.074;9.952;2023-04-03T03:34:56;7.80;;;6.10;;
8232;SDS011;4157;48.074;9.952;2023-04-03T03:37:23;8.20;;;5.90;;
8232;SDS011;4157;48.074;9.952;2023-04-03T03:39:51;6.68;;;5.35;;
8232;SDS011;4157;48.074;9.952;2023-04-03T03:42:19;6.80;;;5.40;;
8232;SDS011;4157;48.074;9.952;2023-04-03T03:44:48;7.57;;;5.28;;
8232;SDS011;4157;48.074;9.952;2023-04-03T03:47:18;8.40;;;5.82;;
8232;SDS011;4157;48.074;9.952;2023-04-03T03:49:46;6.72;;;5.55;;
8232;SDS011;4157;48.074;9.952;2023-04-03T03:52:16;8.18;;;5.95;;
8232;SDS011;4157;48.074;9.952;2023-04-03T03:54:44;6.35;;;4.90;;
8232;SDS011;4157;48.074;9.952;2023-04-03T03:57:12;6.28;;;5.35;;
8232;SDS011;4157;48.074;9.952;2023-04-03T03:59:40;6.43;;;5.13;;
8232;SDS011;4157;48.074;9.952;2023-04-03T04:02:09;7.65;;;5.80;;
8232;SDS011;4157;48.074;9.952;2023-04-03T04:04:37;6.70;;;5.05;;
8232;SDS011;4157;48.074;9.952;2023-04-03T04:07:05;6.43;;;5.13;;
8232;SDS011;4157;48.074;9.952;2023-04-03T04:09:35;6.63;;;5.20;;
8232;SDS011;4157;48.074;9.952;2023-04-03T04:12:03;7.75;;;5.90;;
8232;SDS011;4157;48.074;9.952;2023-04-03T04:14:32;7.35;;;5.78;;
8232;SDS011;4157;48.074;9.952;2023-04-03T04:17:01;6.50;;;5.38;;
8232;SDS011;4157;48.074;9.952;2023-04-03T04:19:28;7.13;;;5.53;;
8232;SDS011;4157;48.074;9.952;2023-04-03T04:21:56;7.32;;;5.72;;
8232;SDS011;4157;48.074;9.952;2023-04-03T04:24:24;6.38;;;5.18;;
8232;SDS011;4157;48.074;9.952;2023-04-03T04:26:55;7.15;;;4.75;;
8232;SDS011;4157;48.074;9.952;2023-04-03T04:29:24;6.50;;;4.80;;
8232;SDS011;4157;48.074;9.952;2023-04-03T04:31:52;7.22;;;4.75;;
8232;SDS011;4157;48.074;9.952;2023-04-03T04:34:21;7.93;;;5.10;;
8232;SDS011;4157;48.074;9.952;2023-04-03T04:36:49;7.45;;;5.22;;
8232;SDS011;4157;48.074;9.952;2023-04-03T04:39:17;6.53;;;4.90;;
8232;SDS011;4157;48.074;9.952;2023-04-03T04:41:45;6.57;;;5.57;;
8232;SDS011;4157;48.074;9.952;2023-04-03T04:44:14;7.20;;;5.05;;
8232;SDS011;4157;48.074;9.952;2023-04-03T04:46:42;8.05;;;4.85;;
8232;SDS011;4157;48.074;9.952;2023-04-03T04:49:11;7.03;;;5.32;;
8232;SDS011;4157;48.074;9.952;2023-04-03T04:51:38;6.95;;;4.88;;
8232;SDS011;4157;48.074;9.952;2023-04-03T04:54:06;6.25;;;4.70;;
8232;SDS011;4157;48.074;9.952;2023-04-03T04:56:34;7.45;;;5.35;;
8232;SDS011;4157;48.074;9.952;2023-04-03T04:59:01;6.82;;;5.07;;
8232;SDS011;4157;48.074;9.952;2023-04-03T05:01:31;6.32;;;4.75;;
8232;SDS011;4157;48.074;9.952;2023-04-03T05:04:04;6.95;;;4.60;;
8232;SDS011;4157;48.074;9.952;2023-04-03T05:06:33;8.65;;;5.18;;
8232;SDS011;4157;48.074;9.952;2023-04-03T05:09:03;5.93;;;4.43;;
8232;SDS011;4157;48.074;9.952;2023-04-03T05:11:32;6.38;;;4.72;;
8232;SDS011;4157;48.074;9.952;2023-04-03T05:13:59;8.05;;;4.60;;
8232;SDS011;4157;48.074;9.952;2023-04-03T05:16:28;6.75;;;4.82;;
8232;SDS011;4157;48.074;9.952;2023-04-03T05:18:58;5.90;;;4.50;;
8232;SDS011;4157;48.074;9.952;2023-04-03T05:21:26;7.22;;;4.30;;
8232;SDS011;4157;48.074;9.952;2023-04-03T05:23:58;5.63;;;4.13;;
8232;SDS011;4157;48.074;9.952;2023-04-03T05:26:29;6.50;;;4.75;;
8232;SDS011;4157;48.074;9.952;2023-04-03T05:28:57;7.32;;;4.95;;
8232;SDS011;4157;48.074;9.952;2023-04-03T05:31:25;7.40;;;4.40;;
8232;SDS011;4157;48.074;9.952;2023-04-03T05:33:55;6.82;;;4.50;;
8232;SDS011;4157;48.074;9.952;2023-04-03T05:36:24;5.72;;;4.13;;
8232;SDS011;4157;48.074;9.952;2023-04-03T05:38:57;6.53;;;4.70;;
8232;SDS011;4157;48.074;9.952;2023-04-03T05:41:25;7.90;;;4.35;;
8232;SDS011;4157;48.074;9.952;2023-04-03T05:43:53;9.68;;;4.53;;
8232;SDS011;4157;48.074;9.952;2023-04-03T05:46:22;6.15;;;3.75;;
8232;SDS011;4157;48.074;9.952;2023-04-03T05:48:54;7.47;;;4.10;;
8232;SDS011;4157;48.074;9.952;2023-04-03T05:51:28;5.65;;;3.92;;
8232;SDS011;4157;48.074;9.952;2023-04-03T05:54:00;6.28;;;4.18;;
8232;SDS011;4157;48.074;9.952;2023-04-03T05:56:29;6.38;;;4.25;;
8232;SDS011;4157;48.074;9.952;2023-04-03T05:58:57;6.05;;;3.88;;
8232;SDS011;4157;48.074;9.952;2023-04-03T06:01:25;6.13;;;3.65;;
8232;SDS011;4157;48.074;9.952;2023-04-03T06:03:55;5.93;;;4.00;;
8232;SDS011;4157;48.074;9.952;2023-04-03T06:06:25;6.22;;;3.75;;
8232;SDS011;4157;48.074;9.952;2023-04-03T06:08:55;5.90;;;3.95;;
8232;SDS011;4157;48.074;9.952;2023-04-03T06:11:23;5.63;;;3.80;;
8232;SDS011;4157;48.074;9.952;2023-04-03T06:13:50;5.60;;;3.72;;
8232;SDS011;4157;48.074;9.952;2023-04-03T06:16:19;5.22;;;4.03;;
8232;SDS011;4157;48.074;9.952;2023-04-03T06:18:47;6.65;;;4.55;;
8232;SDS011;4157;48.074;9.952;2023-04-03T06:21:14;6.38;;;4.18;;
8232;SDS011;4157;48.074;9.952;2023-04-03T06:23:43;5.80;;;3.95;;
8232;SDS011;4157;48.074;9.952;2023-04-03T06:26:11;6.15;;;4.18;;
8232;SDS011;4157;48.074;9.952;2023-04-03T06:28:39;6.70;;;3.95;;
8232;SDS011;4157;48.074;9.952;2023-04-03T06:31:06;6.75;;;4.13;;
8232;SDS011;4157;48.074;9.952;2023-04-03T06:33:34;7.40;;;4.10;;
8232;SDS011;4157;48.074;9.952;2023-04-03T06:36:03;6.55;;;4.20;;
8232;SDS011;4157;48.074;9.952;2023-04-03T06:38:31;5.53;;;3.92;;
8232;SDS011;4157;48.074;9.952;2023-04-03T06:41:00;7.70;;;4.03;;
8232;SDS011;4157;48.074;9.952;2023-04-03T06:43:28;7.32;;;4.43;;
8232;SDS011;4157;48.074;9.952;2023-04-03T06:45:56;6.05;;;4.00;;
8232;SDS011;4157;48.074;9.952;2023-04-03T06:48:24;7.90;;;4.78;;
8232;SDS011;4157;48.074;9.952;2023-04-03T06:50:52;6.38;;;4.28;;
8232;SDS011;4157;48.074;9.952;2023-04-03T06:53:20;6.32;;;4.38;;
8232;SDS011;4157;48.074;9.952;2023-04-03T06:55:48;8.68;;;4.30;;
8232;SDS011;4157;48.074;9.952;2023-04-03T06:58:17;7.28;;;4.20;;
8232;SDS011;4157;48.074;9.952;2023-04-03T07:00:45;6.78;;;3.80;;
8232;SDS011;4157;48.074;9.952;2023-04-03T07:03:12;6.45;;;4.43;;
8232;SDS011;4157;48.074;9.952;2023-04-03T07:05:41;7.60;;;4.18;;
8232;SDS011;4157;48.074;9.952;2023-04-03T07:08:10;5.43;;;3.50;;
8232;SDS011;4157;48.074;9.952;2023-04-03T07:10:38;6.00;;;3.92;;
8232;SDS011;4157;48.074;9.952;2023-04-03T07:13:05;9.13;;;4.40;;
8232;SDS011;4157;48.074;9.952;2023-04-03T07:15:34;8.45;;;4.78;;
8232;SDS011;4157;48.074;9.952;2023-04-03T07:18:02;6.05;;;4.30;;
8232;SDS011;4157;48.074;9.952;2023-04-03T07:20:31;7.43;;;4.30;;
8232;SDS011;4157;48.074;9.952;2023-04-03T07:22:59;6.57;;;4.20;;
8232;SDS011;4157;48.074;9.952;2023-04-03T07:25:27;6.00;;;3.80;;
8232;SDS011;4157;48.074;9.952;2023-04-03T07:27:55;6.80;;;4.22;;
8232;SDS011;4157;48.074;9.952;2023-04-03T07:30:23;6.00;;;4.13;;
8232;SDS011;4157;48.074;9.952;2023-04-03T07:32:52;6.75;;;4.32;;
8232;SDS011;4157;48.074;9.952;2023-04-03T07:35:20;5.60;;;3.63;;
8232;SDS011;4157;48.074;9.952;2023-04-03T07:37:48;5.82;;;4.15;;
8232;SDS011;4157;48.074;9.952;2023-04-03T07:40:16;5.57;;;4.00;;
8232;SDS011;4157;48.074;9.952;2023-04-03T07:42:44;6.85;;;5.03;;
8232;SDS011;4157;48.074;9.952;2023-04-03T07:45:12;5.93;;;3.65;;
8232;SDS011;4157;48.074;9.952;2023-04-03T07:47:40;7.78;;;4.03;;
8232;SDS011;4157;48.074;9.952;2023-04-03T07:50:09;6.05;;;4.13;;
8232;SDS011;4157;48.074;9.952;2023-04-03T07:52:37;5.85;;;3.83;;
8232;SDS011;4157;48.074;9.952;2023-04-03T07:55:05;7.07;;;4.22;;
8232;SDS011;4157;48.074;9.952;2023-04-03T07:57:33;6.47;;;4.60;;
8232;SDS011;4157;48.074;9.952;2023-04-03T08:00:00;5.75;;;3.88;;
8232;SDS011;4157;48.074;9.952;2023-04-03T08:02:37;6.57;;;4.05;;
8232;SDS011;4157;48.074;9.952;2023-04-03T08:05:05;5.78;;;3.92;;
8232;SDS011;4157;48.074;9.952;2023-04-03T08:07:35;5.30;;;3.72;;
8232;SDS011;4157;48.074;9.952;2023-04-03T08:10:03;5.88;;;3.97;;
8232;SDS011;4157;48.074;9.952;2023-04-03T08:12:31;7.10;;;4.40;;
8232;SDS011;4157;48.074;9.952;2023-04-03T08:14:59;7.53;;;4.25;;
8232;SDS011;4157;48.074;9.952;2023-04-03T08:17:27;6.15;;;3.90;;
8232;SDS011;4157;48.074;9.952;2023-04-03T08:19:55;7.50;;;4.72;;
8232;SDS011;4157;48.074;9.952;2023-04-03T08:22:22;6.95;;;4.75;;
8232;SDS011;4157;48.074;9.952;2023-04-03T08:24:51;5.85;;;4.22;;
8232;SDS011;4157;48.074;9.952;2023-04-03T08:27:19;6.68;;;3.97;;
8232;SDS011;4157;48.074;9.952;2023-04-03T08:29:47;6.28;;;4.28;;
8232;SDS011;4157;48.074;9.952;2023-04-03T08:32:15;6.28;;;4.25;;
8232;SDS011;4157;48.074;9.952;2023-04-03T08:34:43;6.20;;;4.38;;
8232;SDS011;4157;48.074;9.952;2023-04-03T08:37:11;7.22;;;4.78;;
8232;SDS011;4157;48.074;9.952;2023-04-03T08:39:39;7.30;;;5.20;;
8232;SDS011;4157;48.074;9.952;2023-04-03T08:42:11;7.88;;;5.35;;
8232;SDS011;4157;48.074;9.952;2023-04-03T08:47:11;7.13;;;4.15;;
8232;SDS011;4157;48.074;9.952;2023-04-03T08:49:46;5.68;;;4.13;;
8232;SDS011;4157;48.074;9.952;2023-04-03T08:52:18;5.50;;;4.38;;
8232;SDS011;4157;48.074;9.952;2023-04-03T08:54:49;5.60;;;4.43;;
8232;SDS011;4157;48.074;9.952;2023-04-03T08:57:22;7.07;;;4.60;;
8232;SDS011;4157;48.074;9.952;2023-04-03T08:59:53;5.90;;;4.28;;
8232;SDS011;4157;48.074;9.952;2023-04-03T09:02:25;8.38;;;4.75;;
8232;SDS011;4157;48.074;9.952;2023-04-03T09:04:55;5.55;;;4.05;;
8232;SDS011;4157;48.074;9.952;2023-04-03T09:07:25;8.27;;;4.15;;
8232;SDS011;4157;48.074;9.952;2023-04-03T09:09:59;5.85;;;4.15;;
8232;SDS011;4157;48.074;9.952;2023-04-03T09:12:33;7.60;;;4.40;;
8232;SDS011;4157;48.074;9.952;2023-04-03T09:15:02;8.68;;;4.47;;
8232;SDS011;4157;48.074;9.952;2023-04-03T09:17:36;6.80;;;4.35;;
8232;SDS011;4157;48.074;9.952;2023-04-03T09:20:09;6.15;;;4.25;;
8232;SDS011;4157;48.074;9.952;2023-04-03T09:22:38;5.65;;;4.22;;
8232;SDS011;4157;48.074;9.952;2023-04-03T09:25:10;5.32;;;3.75;;
8232;SDS011;4157;48.074;9.952;2023-04-03T09:27:40;6.03;;;3.83;;
8232;SDS011;4157;48.074;9.952;2023-04-03T09:30:11;5.80;;;3.65;;
8232;SDS011;4157;48.074;9.952;2023-04-03T09:32:39;5.82;;;3.40;;
8232;SDS011;4157;48.074;9.952;2023-04-03T09:35:15;7.15;;;3.72;;
8232;SDS011;4157;48.074;9.952;2023-04-03T09:37:44;6.25;;;4.25;;
8232;SDS011;4157;48.074;9.952;2023-04-03T09:40:27;5.38;;;3.40;;
8232;SDS011;4157;48.074;9.952;2023-04-03T09:42:57;6.05;;;3.60;;
8232;SDS011;4157;48.074;9.952;2023-04-03T09:45:27;6.10;;;3.70;;
8232;SDS011;4157;48.074;9.952;2023-04-03T09:48:06;5.13;;;3.90;;
8232;SDS011;4157;48.074;9.952;2023-04-03T09:50:34;5.57;;;2.97;;
8232;SDS011;4157;48.074;9.952;2023-04-03T09:53:06;6.15;;;3.50;;
8232;SDS011;4157;48.074;9.952;2023-04-03T09:55:41;6.07;;;3.53;;
8232;SDS011;4157;48.074;9.952;2023-04-03T09:58:23;4.70;;;3.08;;
8232;SDS011;4157;48.074;9.952;2023-04-03T10:00:53;7.00;;;3.17;;
8232;SDS011;4157;48.074;9.952;2023-04-03T10:03:23;5.78;;;2.95;;
8232;SDS011;4157;48.074;9.952;2023-04-03T10:05:51;4.90;;;2.90;;
8232;SDS011;4157;48.074;9.952;2023-04-03T10:08:22;5.65;;;2.90;;
8232;SDS011;4157;48.074;9.952;2023-04-03T10:11:07;5.15;;;2.85;;
8232;SDS011;4157;48.074;9.952;2023-04-03T10:13:37;5.78;;;2.85;;
8232;SDS011;4157;48.074;9.952;2023-04-03T10:16:17;4.15;;;2.50;;
8232;SDS011;4157;48.074;9.952;2023-04-03T10:18:46;4.00;;;2.67;;
8232;SDS011;4157;48.074;9.952;2023-04-03T10:21:29;4.88;;;2.88;;
8232;SDS011;4157;48.074;9.952;2023-04-03T10:23:59;4.30;;;2.60;;
8232;SDS011;4157;48.074;9.952;2023-04-03T10:26:32;3.92;;;2.40;;
8232;SDS011;4157;48.074;9.952;2023-04-03T10:29:06;4.45;;;2.58;;
8232;SDS011;4157;48.074;9.952;2023-04-03T10:31:37;4.78;;;2.70;;
8232;SDS011;4157;48.074;9.952;2023-04-03T10:34:10;4.80;;;2.60;;
8232;SDS011;4157;48.074;9.952;2023-04-03T10:36:45;5.53;;;3.45;;
8232;SDS011;4157;48.074;9.952;2023-04-03T10:39:20;6.00;;;3.03;;
8232;SDS011;4157;48.074;9.952;2023-04-03T10:41:52;5.32;;;2.53;;
8232;SDS011;4157;48.074;9.952;2023-04-03T10:44:27;3.75;;;2.20;;
8232;SDS011;4157;48.074;9.952;2023-04-03T10:46:58;6.80;;;2.33;;
8232;SDS011;4157;48.074;9.952;2023-04-03T10:49:33;4.72;;;2.60;;
8232;SDS011;4157;48.074;9.952;2023-04-03T10:52:05;5.13;;;2.97;;
8232;SDS011;4157;48.074;9.952;2023-04-03T10:54:36;4.93;;;2.60;;
8232;SDS011;4157;48.074;9.952;2023-04-03T10:57:06;4.57;;;2.40;;
8232;SDS011;4157;48.074;9.952;2023-04-03T10:59:37;4.15;;;2.45;;
8232;SDS011;4157;48.074;9.952;2023-04-03T11:02:06;4.57;;;2.80;;
8232;SDS011;4157;48.074;9.952;2023-04-03T11:04:36;5.13;;;2.88;;
8232;SDS011;4157;48.074;9.952;2023-04-03T11:07:07;6.07;;;2.53;;
8232;SDS011;4157;48.074;9.952;2023-04-03T11:09:37;4.97;;;2.92;;
8232;SDS011;4157;48.074;9.952;2023-04-03T11:12:09;4.10;;;2.58;;
8232;SDS011;4157;48.074;9.952;2023-04-03T11:14:40;4.00;;;2.30;;
8232;SDS011;4157;48.074;9.952;2023-04-03T11:17:14;5.57;;;3.63;;
8232;SDS011;4157;48.074;9.952;2023-04-03T11:19:44;4.25;;;2.60;;
8232;SDS011;4157;48.074;9.952;2023-04-03T11:22:16;5.32;;;2.90;;
8232;SDS011;4157;48.074;9.952;2023-04-03T11:24:51;5.32;;;2.72;;
8232;SDS011;4157;48.074;9.952;2023-04-03T11:27:21;4.90;;;2.80;;
8232;SDS011;4157;48.074;9.952;2023-04-03T11:29:51;5.13;;;2.80;;
8232;SDS011;4157;48.074;9.952;2023-04-03T11:35:05;4.38;;;2.80;;
8232;SDS011;4157;48.074;9.952;2023-04-03T11:37:34;5.20;;;2.90;;
8232;SDS011;4157;48.074;9.952;2023-04-03T11:40:03;6.43;;;3.72;;
8232;SDS011;4157;48.074;9.952;2023-04-03T11:42:33;6.00;;;3.50;;
8232;SDS011;4157;48.074;9.952;2023-04-03T11:45:24;5.45;;;3.40;;
8232;SDS011;4157;48.074;9.952;2023-04-03T11:47:53;5.68;;;2.88;;
8232;SDS011;4157;48.074;9.952;2023-04-03T11:50:31;5.78;;;2.92;;
8232;SDS011;4157;48.074;9.952;2023-04-03T11:55:53;5.50;;;2.80;;
8232;SDS011;4157;48.074;9.952;2023-04-03T11:58:22;5.38;;;2.92;;
8232;SDS011;4157;48.074;9.952;2023-04-03T12:00:53;5.95;;;2.60;;
8232;SDS011;4157;48.074;9.952;2023-04-03T12:03:31;11.48;;;3.78;;
8232;SDS011;4157;48.074;9.952;2023-04-03T12:08:43;4.82;;;3.03;;
8232;SDS011;4157;48.074;9.952;2023-04-03T12:11:15;4.60;;;2.75;;
8232;SDS011;4157;48.074;9.952;2023-04-03T12:14:01;5.35;;;2.97;;
8232;SDS011;4157;48.074;9.952;2023-04-03T12:16:33;6.68;;;3.13;;
8232;SDS011;4157;48.074;9.952;2023-04-03T12:19:02;5.38;;;3.28;;
8232;SDS011;4157;48.074;9.952;2023-04-03T12:24:23;5.50;;;2.90;;
8232;SDS011;4157;48.074;9.952;2023-04-03T12:27:01;6.53;;;3.10;;
8232;SDS011;4157;48.074;9.952;2023-04-03T12:29:33;5.22;;;2.78;;
8232;SDS011;4157;48.074;9.952;2023-04-03T12:32:08;6.03;;;2.72;;
8232;SDS011;4157;48.074;9.952;2023-04-03T12:34:41;6.57;;;3.10;;
8232;SDS011;4157;48.074;9.952;2023-04-03T12:37:17;5.03;;;3.15;;
8232;SDS011;4157;48.074;9.952;2023-04-03T12:39:52;4.45;;;2.72;;
8232;SDS011;4157;48.074;9.952;2023-04-03T12:42:23;5.82;;;3.20;;
8232;SDS011;4157;48.074;9.952;2023-04-03T12:44:58;5.82;;;2.92;;
8232;SDS011;4157;48.074;9.952;2023-04-03T12:47:32;5.32;;;2.60;;
8232;SDS011;4157;48.074;9.952;2023-04-03T12:50:02;5.18;;;2.85;;
8232;SDS011;4157;48.074;9.952;2023-04-03T12:52:32;5.90;;;2.70;;
8232;SDS011;4157;48.074;9.952;2023-04-03T12:55:01;4.07;;;2.58;;
8232;SDS011;4157;48.074;9.952;2023-04-03T12:57:30;5.78;;;2.75;;
8232;SDS011;4157;48.074;9.952;2023-04-03T12:59:58;6.93;;;2.92;;
8232;SDS011;4157;48.074;9.952;2023-04-03T13:02:27;5.13;;;2.30;;
8232;SDS011;4157;48.074;9.952;2023-04-03T13:04:57;7.35;;;2.65;;
8232;SDS011;4157;48.074;9.952;2023-04-03T13:07:27;5.97;;;2.40;;
8232;SDS011;4157;48.074;9.952;2023-04-03T13:09:58;5.53;;;3.28;;
8232;SDS011;4157;48.074;9.952;2023-04-03T13:12:27;9.40;;;3.25;;
8232;SDS011;4157;48.074;9.952;2023-04-03T13:14:56;4.72;;;2.25;;
8232;SDS011;4157;48.074;9.952;2023-04-03T13:17:24;4.60;;;2.55;;
8232;SDS011;4157;48.074;9.952;2023-04-03T13:19:53;4.30;;;2.53;;
8232;SDS011;4157;48.074;9.952;2023-04-03T13:22:25;9.60;;;5.95;;
8232;SDS011;4157;48.074;9.952;2023-04-03T13:24:54;6.22;;;3.42;;
8232;SDS011;4157;48.074;9.952;2023-04-03T13:27:22;8.23;;;3.08;;
8232;SDS011;4157;48.074;9.952;2023-04-03T13:29:51;4.60;;;2.63;;
8232;SDS011;4157;48.074;9.952;2023-04-03T13:32:20;5.57;;;2.90;;
8232;SDS011;4157;48.074;9.952;2023-04-03T13:34:48;6.13;;;2.97;;
8232;SDS011;4157;48.074;9.952;2023-04-03T13:37:20;5.88;;;2.80;;
8232;SDS011;4157;48.074;9.952;2023-04-03T13:39:57;7.03;;;3.25;;
8232;SDS011;4157;48.074;9.952;2023-04-03T13:42:27;16.00;;;6.35;;
8232;SDS011;4157;48.074;9.952;2023-04-03T13:45:16;7.07;;;3.50;;
8232;SDS011;4157;48.074;9.952;2023-04-03T13:47:46;4.90;;;2.90;;
8232;SDS011;4157;48.074;9.952;2023-04-03T13:50:15;6.43;;;3.15;;
8232;SDS011;4157;48.074;9.952;2023-04-03T13:52:44;8.65;;;3.60;;
8232;SDS011;4157;48.074;9.952;2023-04-03T13:55:20;7.30;;;3.58;;
8232;SDS011;4157;48.074;9.952;2023-04-03T13:57:49;6.03;;;2.78;;
8232;SDS011;4157;48.074;9.952;2023-04-03T14:00:21;4.97;;;2.85;;
8232;SDS011;4157;48.074;9.952;2023-04-03T14:02:55;7.82;;;2.78;;
8232;SDS011;4157;48.074;9.952;2023-04-03T14:05:23;5.80;;;2.78;;
8232;SDS011;4157;48.074;9.952;2023-04-03T14:07:52;5.95;;;3.05;;
8232;SDS011;4157;48.074;9.952;2023-04-03T14:10:21;13.02;;;4.65;;
8232;SDS011;4157;48.074;9.952;2023-04-03T14:12:49;7.15;;;3.60;;
8232;SDS011;4157;48.074;9.952;2023-04-03T14:15:18;10.82;;;5.50;;
8232;SDS011;4157;48.074;9.952;2023-04-03T14:17:46;6.53;;;3.60;;
8232;SDS011;4157;48.074;9.952;2023-04-03T14:20:14;6.90;;;4.00;;
8232;SDS011;4157;48.074;9.952;2023-04-03T14:22:42;5.32;;;2.92;;
8232;SDS011;4157;48.074;9.952;2023-04-03T14:25:10;9.77;;;4.88;;
8232;SDS011;4157;48.074;9.952;2023-04-03T14:27:40;7.65;;;3.38;;
8232;SDS011;4157;48.074;9.952;2023-04-03T14:30:11;6.57;;;3.40;;
8232;SDS011;4157;48.074;9.952;2023-04-03T14:32:40;7.70;;;4.32;;
8232;SDS011;4157;48.074;9.952;2023-04-03T14:35:07;7.57;;;4.28;;
8232;SDS011;4157;48.074;9.952;2023-04-03T14:37:35;5.00;;;3.20;;
8232;SDS011;4157;48.074;9.952;2023-04-03T14:40:03;4.85;;;2.90;;
8232;SDS011;4157;48.074;9.952;2023-04-03T14:42:32;4.72;;;2.47;;
8232;SDS011;4157;48.074;9.952;2023-04-03T14:45:02;7.00;;;3.60;;
8232;SDS011;4157;48.074;9.952;2023-04-03T14:47:30;4.43;;;2.70;;
8232;SDS011;4157;48.074;9.952;2023-04-03T14:49:58;6.57;;;3.03;;
8232;SDS011;4157;48.074;9.952;2023-04-03T14:52:27;6.47;;;3.45;;
8232;SDS011;4157;48.074;9.952;2023-04-03T14:54:55;4.93;;;2.95;;
8232;SDS011;4157;48.074;9.952;2023-04-03T14:57:23;5.50;;;3.53;;
8232;SDS011;4157;48.074;9.952;2023-04-03T14:59:51;9.95;;;7.07;;
8232;SDS011;4157;48.074;9.952;2023-04-03T15:02:25;7.25;;;4.35;;
8232;SDS011;4157;48.074;9.952;2023-04-03T15:04:53;5.38;;;3.00;;
8232;SDS011;4157;48.074;9.952;2023-04-03T15:07:21;5.35;;;2.50;;
8232;SDS011;4157;48.074;9.952;2023-04-03T15:09:49;5.88;;;2.70;;
8232;SDS011;4157;48.074;9.952;2023-04-03T15:12:17;5.53;;;2.40;;
8232;SDS011;4157;48.074;9.952;2023-04-03T15:14:45;7.28;;;3.13;;
8232;SDS011;4157;48.074;9.952;2023-04-03T15:17:14;5.00;;;2.80;;
8232;SDS011;4157;48.074;9.952;2023-04-03T15:19:43;6.88;;;2.80;;
8232;SDS011;4157;48.074;9.952;2023-04-03T15:22:12;4.93;;;2.70;;
8232;SDS011;4157;48.074;9.952;2023-04-03T15:24:41;5.50;;;2.97;;
8232;SDS011;4157;48.074;9.952;2023-04-03T15:27:08;6.25;;;3.03;;
8232;SDS011;4157;48.074;9.952;2023-04-03T15:29:36;6.57;;;2.65;;
8232;SDS011;4157;48.074;9.952;2023-04-03T15:32:04;5.85;;;3.50;;
8232;SDS011;4157;48.074;9.952;2023-04-03T15:34:32;5.85;;;3.92;;
8232;SDS011;4157;48.074;9.952;2023-04-03T15:37:01;4.53;;;2.60;;
8232;SDS011;4157;48.074;9.952;2023-04-03T15:39:28;5.22;;;2.60;;
8232;SDS011;4157;48.074;9.952;2023-04-03T15:41:56;4.05;;;2.33;;
8232;SDS011;4157;48.074;9.952;2023-04-03T15:44:30;4.10;;;2.20;;
8232;SDS011;4157;48.074;9.952;2023-04-03T15:46:58;6.07;;;2.60;;